Coates, United Kingdom
Current Conditions -  °F | °C
As of 10:50 PM on Thursday 20 Nov 2014 (Local Time) from EGVA Reporting Station
Haze Haze  
Wind Chill:   Ceiling: 200
Heat Index:   Visibility: 1.7mi
Dew Point:   Wind: 3mph
Humidity: 100%   Direction: 60°ENE
Pressure: 30.21"   Gusts: NA
Location:  51.71°N, 2.03°W
Report Text: EGVA 202250Z AUTO 06003KT 2800 R27/0900 BR BKN002 04/04 A3021 RMK AO2 VIS 1600 RWY27 BKN V SCT $
Loading
Personal Weather Stations






























Interactive Weather Map New forecast layout! Learn more

10-Day Weather Forecast

Advertisements
Track Severe Weather on mobile